Flight Track Log - Related Links

Times and Time Zones

All times are in EDT time to prevent confusion due to time zone crossing. See the N957AN flight status page for this flight to view local times or setup timezone preferences in your user account.

Time Position Orientation Groundspeed Altitude Reporting Facility
EDT Latitude Longitude Course Direction KTS MPH feet Rate Location/Type
Tue 10:46:11 AM 47.4258 -122.3089 157° South 173 199 1,300  Level Seattle Center
Tue 10:47:21 AM 47.3592 -122.3086 180° South 217 250 2,600 1,603 Climbing Seattle Center
Tue 10:48:00 AM 47.2783 -121.8423 159° South  Level Estimated
Tue 10:48:22 AM 47.2853 -122.3097 181° South 268 308 4,800  Level Seattle Center
Tue 10:49:00 AM 47.2206 -121.6864 161° South  Level Estimated
Tue 10:49:23 AM 47.2094 -122.2964 173° South 279 321 7,400  Level Seattle Center
Tue 10:50:00 AM 47.1628 -121.5310 164° South  Level Estimated
Tue 10:50:24 AM 47.1403 -122.2369 150° Southeast 292 336 10,000  Level Seattle Center
Tue 10:51:00 AM 47.1048 -121.3758 157° South  Level Estimated
Tue 10:51:25 AM 47.0614 -122.1706 150° Southeast 339 390 11,500  Level Seattle Center
Tue 10:52:26 AM 46.9647 -122.1253 162° South 372 428 14,100 2,754 Climbing Seattle Center
Tue 10:53:27 AM 46.8400 -122.0756 165° South 391 450 17,100 2,508 Climbing Seattle Center
Tue 10:54:28 AM 46.7319 -122.0264 163° South 409 471 19,200 2,164 Climbing Seattle Center
Tue 10:55:29 AM 46.6711 -121.8822 122° Southeast 416 479 21,500 2,164 Climbing Seattle Center
Tue 10:56:30 AM 46.6111 -121.7375 121° Southeast 422 486 23,600 1,918 Climbing Seattle Center
Tue 10:57:31 AM 46.5519 -121.5939 121° Southeast 432 497 25,400 1,686 Climbing Seattle Center
Tue 10:58:31 AM 46.4875 -121.4425 122° Southeast 437 503 27,000 1,438 Climbing Seattle Center
Tue 10:59:32 AM 46.4200 -121.2836 122° Southeast 455 524 28,300 1,279 Climbing Seattle Center
Tue 11:00:33 AM 46.3519 -121.1228 121° Southeast 465 535 29,600 1,525 Climbing Seattle Center
Tue 11:01:34 AM 46.2672 -120.9281 122° Southeast 475 547 31,400 1,475 Climbing Seattle Center
Tue 11:02:35 AM 46.1969 -120.7661 122° Southeast 477 549 32,600 1,328 Climbing Seattle Center
Tue 11:03:36 AM 46.1258 -120.6031 122° Southeast 479 551 34,100 1,180 Climbing Seattle Center
Tue 11:05:38 AM 45.9839 -120.2808 122° Southeast 477 549 36,200 951 Climbing Salt Lake Center
Tue 11:06:39 AM 45.9125 -120.1203 123° Southeast 476 548 37,000 393 Climbing Seattle Center
Tue 11:07:40 AM 45.8411 -119.9603 123° Southeast 476 548 37,000  Level Seattle Center
Tue 11:08:41 AM 45.7694 -119.8017 123° Southeast 474 545 37,000  Level Seattle Center
Tue 11:09:42 AM 45.6989 -119.6447 123° Southeast 470 541 37,000  Level Seattle Center
Tue 11:10:43 AM 45.6269 -119.4881 123° Southeast 469 540 37,000  Level Seattle Center
Tue 11:11:43 AM 45.5561 -119.3314 123° Southeast 469 540 37,000  Level Seattle Center
Tue 11:12:44 AM 45.4839 -119.1744 123° Southeast 470 541 37,000  Level Seattle Center
Tue 11:13:45 AM 45.4119 -119.0164 123° Southeast 474 545 37,000  Level Seattle Center
Tue 11:14:46 AM 45.3381 -118.8606 124° Southeast 474 545 37,000  Level Seattle Center
Tue 11:15:47 AM 45.2647 -118.7031 123° Southeast 476 548 37,000  Level Seattle Center
Tue 11:16:48 AM 45.1917 -118.5461 123° Southeast 476 548 37,000  Level Seattle Center
Tue 11:17:49 AM 45.1189 -118.3900 123° Southeast 475 547 37,000  Level Seattle Center
Tue 11:18:50 AM 45.0297 -118.2044 124° Southeast 477 549 37,000  Level Seattle Center
Tue 11:19:50 AM 44.9628 -118.0653 124° Southeast 475 547 37,000  Level Seattle Center
Tue 11:21:03 AM 44.8692 -117.8678 124° Southeast 475 547 37,000  Level Salt Lake Center
Tue 11:22:05 AM 44.7986 -117.7192 124° Southeast 477 549 37,000  Level Salt Lake Center
Tue 11:23:07 AM 44.7200 -117.5442 122° Southeast 476 548 37,000  Level Salt Lake Center
Tue 11:24:09 AM 44.6514 -117.3939 123° Southeast 478 550 37,000  Level Salt Lake Center
Tue 11:25:10 AM 44.5736 -117.2231 123° Southeast 469 540 37,000  Level Salt Lake Center
Tue 11:26:12 AM 44.5061 -117.0769 123° Southeast 468 539 37,000  Level Salt Lake Center
Tue 11:27:14 AM 44.4269 -116.9078 123° Southeast 466 536 37,000  Level Salt Lake Center
Tue 11:28:16 AM 44.3617 -116.7644 122° Southeast 461 531 37,000  Level Salt Lake Center
Tue 11:29:17 AM 44.2836 -116.5989 123° Southeast 460 529 37,000  Level Salt Lake Center
Tue 11:30:19 AM 44.2175 -116.4578 123° Southeast 459 528 37,000  Level Salt Lake Center
Tue 11:31:21 AM 44.1378 -116.2950 124° Southeast 461 531 37,000  Level Salt Lake Center
Tue 11:32:23 AM 44.0725 -116.1553 123° Southeast 455 524 37,000  Level Salt Lake Center
Tue 11:33:25 AM 43.9936 -115.9914 124° Southeast 459 528 37,000  Level Salt Lake Center
Tue 11:34:26 AM 43.9278 -115.8486 123° Southeast 461 531 37,000  Level Salt Lake Center
Tue 11:35:28 AM 43.8611 -115.7069 123° Southeast 461 531 37,000  Level Salt Lake Center
Tue 11:36:30 AM 43.7831 -115.5411 123° Southeast 461 531 37,000  Level Salt Lake Center
Tue 11:37:32 AM 43.7156 -115.3992 123° Southeast 463 533 37,000  Level Salt Lake Center
Tue 11:38:34 AM 43.6372 -115.2336 123° Southeast 460 529 37,000  Level Salt Lake Center
Tue 11:39:36 AM 43.5697 -115.0922 123° Southeast 462 532 37,000  Level Salt Lake Center
Tue 11:40:38 AM 43.4900 -114.9283 124° Southeast 461 531 37,000  Level Salt Lake Center
Tue 11:41:39 AM 43.4219 -114.7872 124° Southeast 463 533 37,000  Level Salt Lake Center
Tue 11:42:41 AM 43.3422 -114.6225 124° Southeast 464 534 37,000  Level Salt Lake Center
Tue 11:43:43 AM 43.2731 -114.4828 124° Southeast 463 533 37,000  Level Salt Lake Center
Tue 11:44:45 AM 43.1933 -114.3208 124° Southeast 461 531 37,000  Level Salt Lake Center
Tue 11:45:47 AM 43.1206 -114.1731 124° Southeast 465 535 37,000  Level Salt Lake Center
Tue 11:46:49 AM 43.0464 -114.0292 125° Southeast 463 533 37,000  Level Salt Lake Center
Tue 11:47:51 AM 42.9750 -113.8828 124° Southeast 464 534 37,000  Level Salt Lake Center
Tue 11:48:52 AM 42.9014 -113.7358 124° Southeast 464 534 37,000  Level Salt Lake Center
Tue 11:49:54 AM 42.8211 -113.5747 124° Southeast 460 529 37,000  Level Salt Lake Center
Tue 11:50:56 AM 42.7514 -113.4383 125° Southeast 459 528 37,000  Level Salt Lake Center
Tue 11:51:58 AM 42.6703 -113.2794 125° Southeast 461 531 37,000  Level Salt Lake Center
Tue 11:52:59 AM 42.5972 -113.1389 125° Southeast 458 527 37,000  Level Salt Lake Center
Tue 11:54:01 AM 42.5242 -112.9972 125° Southeast 458 527 37,000  Level Salt Lake Center
Tue 11:55:03 AM 42.4514 -112.8564 125° Southeast 457 526 37,000  Level Salt Lake Center
Tue 11:56:05 AM 42.3781 -112.7164 125° Southeast 457 526 37,000  Level Salt Lake Center
Tue 11:57:06 AM 42.3047 -112.5772 125° Southeast 456 525 37,000  Level Salt Lake Center
Tue 11:58:08 AM 42.2311 -112.4378 125° Southeast 457 526 37,000  Level Salt Lake Center
Tue 11:59:10 AM 42.1422 -112.2692 125° Southeast 460 529 37,000  Level Salt Lake Center
Tue 12:00:12 PM 42.0686 -112.1272 125° Southeast 463 533 37,000  Level Salt Lake Center
Tue 12:01:13 PM 41.9922 -111.9869 126° Southeast 465 535 37,000  Level Salt Lake Center
Tue 12:02:15 PM 41.9256 -111.8361 121° Southeast 469 540 37,000  Level Salt Lake Center
Tue 12:03:17 PM 41.8586 -111.6878 121° Southeast 466 536 37,000  Level Salt Lake Center
Tue 12:04:19 PM 41.7928 -111.5397 121° Southeast 462 532 37,000  Level Salt Lake Center
Tue 12:05:21 PM 41.7267 -111.3919 121° Southeast 461 531 37,000  Level Salt Lake Center
Tue 12:06:22 PM 41.6600 -111.2469 122° Southeast 458 527 37,000  Level Salt Lake Center
Tue 12:07:24 PM 41.5792 -111.0697 121° Southeast 463 533 37,000  Level Salt Lake Center
Tue 12:08:26 PM 41.5203 -110.9411 121° Southeast 464 534 37,000  Level Salt Lake Center
Tue 12:09:27 PM 41.4458 -110.7775 121° Southeast 464 534 37,000  Level Salt Lake Center
Tue 12:10:29 PM 41.3808 -110.6375 122° Southeast 464 534 37,000  Level Salt Lake Center
Tue 12:11:31 PM 41.3053 -110.4736 121° Southeast 467 537 37,000  Level Salt Lake Center
Tue 12:12:33 PM 41.2397 -110.3331 122° Southeast 468 539 37,000  Level Salt Lake Center
Tue 12:13:34 PM 41.1633 -110.1700 122° Southeast 468 539 37,000  Level Salt Lake Center
Tue 12:14:36 PM 41.0975 -110.0319 122° Southeast 466 536 37,000  Level Salt Lake Center
Tue 12:15:38 PM 41.0222 -109.8731 122° Southeast 459 528 37,000  Level Salt Lake Center
Tue 12:16:39 PM 40.9581 -109.7381 122° Southeast 456 525 37,000  Level Salt Lake Center
Tue 12:17:41 PM 40.8833 -109.5822 122° Southeast 453 521 37,000  Level Salt Lake Center
Tue 12:18:43 PM 40.8222 -109.4558 123° Southeast 455 524 37,000  Level Salt Lake Center
Tue 12:19:45 PM 40.7458 -109.2972 122° Southeast 459 528 37,000  Level Salt Lake Center
Tue 12:20:46 PM 40.6772 -109.1564 123° Southeast 456 525 37,000  Level Salt Lake Center
Tue 12:21:48 PM 40.6119 -109.0231 123° Southeast 455 524 37,000  Level Salt Lake Center
Tue 12:22:50 PM 40.5392 -108.8728 122° Southeast 452 520 37,000  Level Salt Lake Center
Tue 12:23:07 PM 40.5172 -108.8256 121° Southeast 451 519 37,000  Level Denver Center
Tue 12:24:10 PM 40.4514 -108.6903 123° Southeast 453 521 37,000  Level Denver Center
Tue 12:25:12 PM 40.3719 -108.5325 123° Southeast 462 532 37,000  Level Denver Center
Tue 12:26:14 PM 40.3044 -108.3975 123° Southeast 462 532 37,000  Level Denver Center
Tue 12:27:16 PM 40.2256 -108.2383 123° Southeast 462 532 37,000  Level Denver Center
Tue 12:28:18 PM 40.1578 -108.1028 123° Southeast 463 533 37,000  Level Denver Center
Tue 12:29:20 PM 40.0781 -107.9442 123° Southeast 465 535 37,000  Level Denver Center
Tue 12:30:22 PM 40.0103 -107.8097 123° Southeast 461 531 37,000  Level Denver Center
Tue 12:31:24 PM 39.9422 -107.6744 123° Southeast 463 533 37,000  Level Denver Center
Tue 12:32:26 PM 39.8631 -107.5131 123° Southeast 472 543 37,000  Level Denver Center
Tue 12:33:28 PM 39.7928 -107.3758 124° Southeast 474 545 37,000  Level Denver Center
Tue 12:34:30 PM 39.7133 -107.2158 123° Southeast 470 541 37,000  Level Denver Center
Tue 12:35:32 PM 39.6444 -107.0817 124° Southeast 466 536 37,000  Level Denver Center
Tue 12:36:34 PM 39.5664 -106.9286 123° Southeast 459 528 37,000  Level Denver Center
Tue 12:37:36 PM 39.4972 -106.7961 124° Southeast 462 532 37,000  Level Denver Center
Tue 12:38:38 PM 39.4189 -106.6406 123° Southeast 462 532 37,000  Level Denver Center
Tue 12:39:40 PM 39.3508 -106.5100 124° Southeast 457 526 37,000  Level Denver Center
Tue 12:40:42 PM 39.2731 -106.3594 124° Southeast 452 520 37,000  Level Denver Center
Tue 12:41:44 PM 39.2050 -106.2308 124° Southeast 453 521 37,000  Level Denver Center
Tue 12:42:46 PM 39.1356 -106.0975 124° Southeast 446 513 37,000  Level Denver Center
Tue 12:43:48 PM 39.0656 -105.9647 124° Southeast 446 513 37,000  Level Denver Center
Tue 12:44:50 PM 38.9958 -105.8311 124° Southeast 445 512 37,000  Level Denver Center
Tue 12:45:53 PM 38.9125 -105.6747 124° Southeast 450 518 37,000  Level Denver Center
Tue 12:46:55 PM 38.8431 -105.5442 124° Southeast 444 511 37,000  Level Denver Center
Tue 12:47:57 PM 38.7711 -105.4094 124° Southeast 454 522 37,000  Level Denver Center
Tue 12:48:59 PM 38.7000 -105.2761 124° Southeast 451 519 37,000  Level Denver Center
Tue 12:50:01 PM 38.6289 -105.1442 125° Southeast 449 517 37,000  Level Denver Center
Tue 12:51:03 PM 38.5581 -105.0122 124° Southeast 447 514 37,000  Level Denver Center
Tue 12:52:05 PM 38.4742 -104.8578 125° Southeast 448 516 37,000  Level Denver Center
Tue 12:53:07 PM 38.4031 -104.7267 125° Southeast 446 513 37,000  Level Denver Center
Tue 12:54:09 PM 38.3319 -104.5975 125° Southeast 446 513 37,000  Level Denver Center
Tue 12:55:11 PM 38.2628 -104.4703 125° Southeast 451 519 37,000  Level Denver Center
Tue 12:56:13 PM 38.1794 -104.3233 126° Southeast 456 525 37,000  Level Denver Center
Tue 12:57:15 PM 38.1086 -104.1942 125° Southeast 462 532 37,000  Level Denver Center
Tue 12:58:17 PM 38.0250 -104.0453 125° Southeast 462 532 37,000  Level Denver Center
Tue 12:59:19 PM 37.9536 -103.9189 126° Southeast 458 527 37,000  Level Denver Center
Tue 01:00:21 PM 37.8675 -103.7761 127° Southeast 452 520 37,000  Level Denver Center
Tue 01:01:23 PM 37.7944 -103.6539 127° Southeast 451 519 37,000  Level Denver Center
Tue 01:02:25 PM 37.7219 -103.5294 126° Southeast 455 524 37,000  Level Denver Center
Tue 01:03:27 PM 37.6361 -103.3869 127° Southeast 455 524 37,000  Level Denver Center
Tue 01:04:29 PM 37.5633 -103.2661 127° Southeast 450 518 37,000  Level Denver Center
Tue 01:05:32 PM 37.4789 -103.1256 127° Southeast 449 517 37,000  Level Denver Center
Tue 01:06:34 PM 37.4053 -103.0039 127° Southeast 453 521 37,000  Level Denver Center
Tue 01:07:19 PM 37.3439 -102.9036 128° Southeast 454 522 37,000  Level Albuquerque Center
Tue 01:08:21 PM 37.2708 -102.7833 127° Southeast 453 521 37,000  Level Albuquerque Center
Tue 01:09:23 PM 37.1844 -102.6433 128° Southeast 453 521 37,000  Level Albuquerque Center
Tue 01:10:25 PM 37.1047 -102.5128 127° Southeast 455 524 37,000  Level Albuquerque Center
Tue 01:11:27 PM 37.0317 -102.3917 127° Southeast 456 525 37,000  Level Albuquerque Center
Tue 01:12:17 PM 36.9692 -102.2933 128° Southeast 455 524 37,000  Level Albuquerque Center
Tue 01:13:19 PM 36.8828 -102.1539 128° Southeast 456 525 37,000  Level Albuquerque Center
Tue 01:14:21 PM 36.8103 -102.0364 128° Southeast 451 519 37,000  Level Albuquerque Center
Tue 01:15:23 PM 36.7244 -101.9006 128° Southeast 448 516 37,000  Level Albuquerque Center
Tue 01:16:25 PM 36.6542 -101.7878 128° Southeast 440 506 37,000  Level Albuquerque Center
Tue 01:17:27 PM 36.5711 -101.6586 129° Southeast 439 505 37,000  Level Albuquerque Center
Tue 01:18:29 PM 36.4967 -101.5400 128° Southeast 441 507 37,000  Level Albuquerque Center
Tue 01:19:31 PM 36.4117 -101.4053 128° Southeast 444 511 37,000  Level Albuquerque Center
Tue 01:20:33 PM 36.3386 -101.2894 128° Southeast 445 512 37,000  Level Albuquerque Center
Tue 01:21:35 PM 36.2517 -101.1536 128° Southeast 446 513 37,000  Level Albuquerque Center
Tue 01:22:37 PM 36.1744 -101.0325 128° Southeast 447 514 37,000  Level Albuquerque Center
Tue 01:23:39 PM 36.0958 -100.9111 129° Southeast 450 518 37,000  Level Albuquerque Center
Tue 01:24:41 PM 36.0183 -100.7897 128° Southeast 450 518 37,000  Level Albuquerque Center
Tue 01:25:43 PM 35.9400 -100.6697 129° Southeast 449 517 37,000  Level Albuquerque Center
Tue 01:26:45 PM 35.8608 -100.5492 129° Southeast 450 518 37,000  Level Albuquerque Center
Tue 01:27:47 PM 35.7686 -100.4064 128° Southeast 446 513 37,000  Level Albuquerque Center
Tue 01:28:50 PM 35.6894 -100.2875 129° Southeast 447 514 37,000  Level Albuquerque Center
Tue 01:29:52 PM 35.6131 -100.1689 128° Southeast 445 512 37,000  Level Albuquerque Center
Tue 01:30:54 PM 35.5350 -100.0514 129° Southeast 445 512 37,000  Level Albuquerque Center
Tue 01:31:56 PM 35.4500 -99.9419 134° Southeast 444 511 37,000  Level Albuquerque Center
Tue 01:32:58 PM 35.3603 -99.8394 137° Southeast 442 509 37,000  Level Albuquerque Center
Tue 01:34:00 PM 35.2531 -99.7172 137° Southeast 440 506 37,000  Level Albuquerque Center
Tue 01:35:02 PM 35.1622 -99.6136 137° Southeast 445 512 37,000  Level Albuquerque Center
Tue 01:35:39 PM 35.1022 -99.5453 137° Southeast 441 507 37,000  Level Fort Worth Center
Tue 01:36:39 PM 35.0100 -99.4439 138° Southeast 441 507 37,000 -50 Level Fort Worth Center
Tue 01:37:39 PM 34.9139 -99.3353 137° Southeast 454 522 36,900 -550 Descending Fort Worth Center
Tue 01:38:39 PM 34.8172 -99.2294 138° Southeast 460 529 35,900 -950 Descending Fort Worth Center
Tue 01:39:39 PM 34.7228 -99.1239 137° Southeast 460 529 35,000 -1,000 Descending Fort Worth Center
Tue 01:40:39 PM 34.6283 -99.0161 137° Southeast 460 529 33,900 -1,250 Descending Fort Worth Center
Tue 01:41:39 PM 34.5458 -98.9311 140° Southeast 460 529 32,500 -1,450 Descending Fort Worth Center
Tue 01:42:39 PM 34.4492 -98.8239 138° Southeast 460 529 31,000 -1,550 Descending Fort Worth Center
Tue 01:43:39 PM 34.3503 -98.7139 137° Southeast 467 537 29,400 -1,650 Descending Fort Worth Center
Tue 01:44:39 PM 34.2511 -98.6044 138° Southeast 472 543 27,700 -1,750 Descending Fort Worth Center
Tue 01:45:39 PM 34.1539 -98.4978 138° Southeast 477 549 25,900 -1,850 Descending Fort Worth Center
Tue 01:46:39 PM 34.0506 -98.3786 136° Southeast 470 541 24,000 -1,200 Descending Fort Worth Center
Tue 01:47:39 PM 33.9533 -98.2697 137° Southeast 470 541 23,500 -1,450 Descending Fort Worth Center
Tue 01:48:39 PM 33.8622 -98.1689 137° Southeast 459 528 21,100 -2,300 Descending Fort Worth Center
Tue 01:49:39 PM 33.7792 -98.0808 139° Southeast 453 521 18,900 -2,400 Descending Fort Worth Center
Tue 01:50:39 PM 33.6942 -97.9828 136° Southeast 432 497 16,300 -2,600 Descending Fort Worth Center
Tue 01:51:39 PM 33.6111 -97.8950 139° Southeast 412 474 13,700 -2,300 Descending Fort Worth Center
Tue 01:52:39 PM 33.5278 -97.8047 138° Southeast 405 466 11,700 -1,650 Descending Fort Worth Center
Tue 01:53:39 PM 33.4508 -97.7147 136° Southeast 374 430 10,400 -1,000 Descending Fort Worth Center
Tue 01:54:39 PM 33.3989 -97.6497 134° Southeast 325 374 9,700 -1,050 Descending Fort Worth Center
Tue 01:55:39 PM 33.3425 -97.5825 135° Southeast 291 335 8,300 -1,500 Descending Fort Worth Center
Tue 01:56:39 PM 33.2822 -97.5103 135° Southeast 279 321 6,700 -1,550 Descending Fort Worth Center
Tue 01:57:39 PM 33.2342 -97.4506 134° Southeast 274 315 5,200 -850 Descending Fort Worth Center
Tue 01:58:39 PM 33.1758 -97.3811 135° Southeast 274 315 5,000 -100 Descending Fort Worth Center
Tue 01:59:39 PM 33.1297 -97.3267 135° Southeast 274 315 5,000 -250 Level Fort Worth Center
Tue 02:00:39 PM 33.0775 -97.2622 134° Southeast 251 289 4,500 -550 Descending Fort Worth Center
Tue 02:01:39 PM 33.0378 -97.2175 137° Southeast 229 264 3,900 -850 Descending Fort Worth Center
Tue 02:02:39 PM 32.9981 -97.1731 137° Southeast 211 243 2,800 -1,000 Descending Fort Worth Center
Tue 02:03:39 PM 32.9603 -97.1336 139° Southeast 194 223 1,900 -864 Descending Fort Worth Center
Tue 02:04:37 PM 32.9333 -97.1000 134° Southeast 144 166 1,100 -828 Descending Dallas / Fort Worth TRACON
Tue 02:07:00 PM 32.8968 -97.0380 140° Southeast  Level Estimated

Login

Don't have an account? Register now (free) for customized features, flight alerts, and more!